createdAt,value
2022-12-24T00:02:19.746Z,99617.00
2022-12-24T00:04:46.263Z,99617.25
2022-12-24T00:07:12.913Z,99617.75
2022-12-24T00:09:39.277Z,99613.72
2022-12-24T00:12:05.983Z,99622.19
2022-12-24T00:14:32.431Z,99608.59
2022-12-24T00:16:58.794Z,99608.38
2022-12-24T00:19:25.284Z,99603.22
2022-12-24T00:21:51.670Z,99615.81
2022-12-24T00:24:18.028Z,99617.47
2022-12-24T00:26:44.369Z,99630.41
2022-12-24T00:29:11.883Z,99635.84
2022-12-24T00:31:38.263Z,99639.34
2022-12-24T00:34:04.618Z,99644.38
2022-12-24T00:36:31.041Z,99652.03
2022-12-24T00:38:57.383Z,99649.63
2022-12-24T00:41:28.781Z,99650.75
2022-12-24T00:44:00.197Z,99656.22
2022-12-24T00:46:28.609Z,99657.31
2022-12-24T00:48:55.248Z,99654.22
2022-12-24T00:51:23.013Z,99656.41
2022-12-24T00:53:49.498Z,99658.47
2022-12-24T00:56:15.910Z,99649.84
2022-12-24T00:58:42.288Z,99660.00
2022-12-24T01:01:08.757Z,99661.19
2022-12-24T01:03:35.391Z,99665.38
2022-12-24T01:06:09.352Z,99655.53
2022-12-24T01:08:36.149Z,99675.78
2022-12-24T01:11:04.144Z,99669.16
2022-12-24T01:13:30.597Z,99676.56
2022-12-24T01:15:57.094Z,99686.13
2022-12-24T01:18:24.019Z,99685.47
2022-12-24T01:21:16.573Z,99693.06
2022-12-24T01:23:43.089Z,99700.63
2022-12-24T01:26:11.965Z,99723.19
2022-12-24T01:28:38.322Z,99740.13
2022-12-24T01:31:15.067Z,99740.47
2022-12-24T01:33:41.901Z,99740.47
2022-12-24T01:36:08.698Z,99740.13
2022-12-24T01:38:35.119Z,99741.31
2022-12-24T01:41:20.134Z,99754.53
2022-12-24T01:43:46.463Z,99754.41
2022-12-24T01:46:17.228Z,99752.19
2022-12-24T01:48:53.406Z,99763.84
2022-12-24T01:51:40.994Z,99763.16
2022-12-24T01:54:38.067Z,99775.91
2022-12-24T01:57:11.212Z,99783.25
2022-12-24T01:59:38.516Z,99787.50
2022-12-24T02:02:05.264Z,99789.75
2022-12-24T02:04:43.005Z,99791.56
2022-12-24T02:07:09.387Z,99798.28
2022-12-24T02:09:36.373Z,99796.75
2022-12-24T02:12:03.364Z,99801.00
2022-12-24T02:14:32.339Z,99795.31
2022-12-24T02:17:22.128Z,99806.78
2022-12-24T02:19:51.373Z,99806.31
2022-12-24T02:22:24.884Z,99804.78
2022-12-24T02:25:11.289Z,99802.03
2022-12-24T02:27:52.168Z,99810.78
2022-12-24T02:30:19.935Z,99818.69
2022-12-24T02:33:06.696Z,99819.16
2022-12-24T02:36:11.293Z,99828.25
2022-12-24T02:38:44.255Z,99832.44
2022-12-24T02:41:22.072Z,99831.97
2022-12-24T02:43:49.496Z,99823.47
2022-12-24T02:46:22.404Z,99824.28
2022-12-24T02:48:49.237Z,99825.34
2022-12-24T02:51:16.244Z,99819.91
2022-12-24T02:53:42.801Z,99828.78
2022-12-24T02:56:12.102Z,99832.09
2022-12-24T02:58:47.352Z,99831.13
2022-12-24T03:01:18.172Z,99841.41
2022-12-24T03:04:03.914Z,99850.81
2022-12-24T03:06:44.721Z,99854.25
2022-12-24T03:09:48.479Z,99860.66
2022-12-24T03:12:30.764Z,99857.94
2022-12-24T03:14:57.741Z,99856.09
2022-12-24T03:17:24.154Z,99855.94
2022-12-24T03:19:50.666Z,99855.25
2022-12-24T03:22:17.160Z,99867.28
2022-12-24T03:24:43.510Z,99863.38
2022-12-24T03:27:11.351Z,99867.59
2022-12-24T03:29:38.708Z,99879.97
2022-12-24T03:32:05.099Z,99875.81
2022-12-24T03:34:31.546Z,99884.78
2022-12-24T03:36:57.971Z,99878.09
2022-12-24T03:39:24.335Z,99882.16
2022-12-24T03:41:50.690Z,99887.81
2022-12-24T03:44:17.043Z,99901.13
2022-12-24T03:46:43.367Z,99897.00
2022-12-24T03:49:09.761Z,99897.25
2022-12-24T03:51:36.118Z,99903.56
2022-12-24T03:54:02.590Z,99905.34
2022-12-24T03:56:28.971Z,99904.50
2022-12-24T03:58:55.349Z,99907.94
2022-12-24T04:01:21.921Z,99911.59
2022-12-24T04:03:48.399Z,99910.91
2022-12-24T04:06:17.631Z,99914.59
2022-12-24T04:08:44.006Z,99910.09
2022-12-24T04:11:12.185Z,99931.94
2022-12-24T04:13:38.644Z,99932.31
2022-12-24T04:16:09.948Z,99938.59
2022-12-24T04:18:37.125Z,99933.13
2022-12-24T04:21:03.742Z,99935.03
2022-12-24T04:23:31.308Z,99947.81
2022-12-24T04:26:01.701Z,99944.38
2022-12-24T04:28:31.725Z,99947.09
2022-12-24T04:30:59.733Z,99944.13
2022-12-24T04:33:26.445Z,99947.09
2022-12-24T04:35:52.810Z,99953.59
2022-12-24T04:38:19.296Z,99945.44
2022-12-24T04:40:45.616Z,99958.09
2022-12-24T04:43:12.158Z,99946.63
2022-12-24T04:45:38.550Z,99946.63
2022-12-24T04:48:05.124Z,99945.09
2022-12-24T04:50:31.562Z,99946.38
2022-12-24T04:52:58.611Z,99948.28
2022-12-24T04:55:24.996Z,99956.44
2022-12-24T04:57:53.200Z,99954.78
2022-12-24T05:00:20.064Z,99955.41
2022-12-24T05:02:46.503Z,99961.25
2022-12-24T05:05:12.935Z,99963.88
2022-12-24T05:07:39.285Z,99959.38
2022-12-24T05:10:06.458Z,99951.81
2022-12-24T05:12:32.796Z,99953.00
2022-12-24T05:14:59.138Z,99954.53
2022-12-24T05:17:25.529Z,99951.44
2022-12-24T05:19:51.902Z,99960.31
2022-12-24T05:22:36.687Z,99965.50
2022-12-24T05:25:21.443Z,99961.59
2022-12-24T05:27:51.397Z,99967.19
2022-12-24T05:30:18.033Z,99974.81
2022-12-24T05:32:44.591Z,99973.31
2022-12-24T05:35:10.967Z,99958.88
2022-12-24T05:37:37.288Z,99950.72
2022-12-24T05:40:03.938Z,99960.03
2022-12-24T05:42:30.306Z,99956.56
2022-12-24T05:44:56.655Z,99953.94
2022-12-24T05:47:23.004Z,99967.69
2022-12-24T05:49:49.322Z,99964.53
2022-12-24T05:52:15.682Z,99960.56
2022-12-24T05:54:42.118Z,99958.09
2022-12-24T05:57:08.498Z,99964.28
2022-12-24T05:59:35.029Z,99971.22
2022-12-24T06:02:01.521Z,99974.13
2022-12-24T06:04:29.219Z,99977.44
2022-12-24T06:06:55.798Z,99970.25
2022-12-24T06:09:22.135Z,99987.84
2022-12-24T06:11:48.455Z,99986.19
2022-12-24T06:14:14.830Z,99987.56
2022-12-24T06:16:41.445Z,99985.91
2022-12-24T06:19:07.874Z,99988.53
2022-12-24T06:21:34.258Z,99999.03
2022-12-24T06:24:00.652Z,99991.72
2022-12-24T06:26:27.054Z,100001.53
2022-12-24T06:28:53.467Z,100002.03
2022-12-24T06:31:21.774Z,100004.38
2022-12-24T06:33:48.617Z,100009.75
2022-12-24T06:36:18.411Z,100004.03
2022-12-24T06:38:45.985Z,100003.88
2022-12-24T06:41:12.401Z,100015.31
2022-12-24T06:43:38.973Z,100019.56
2022-12-24T06:46:05.519Z,100021.97
2022-12-24T06:48:31.979Z,100019.50
2022-12-24T06:50:58.432Z,100024.34
2022-12-24T06:53:24.799Z,100024.22
2022-12-24T06:55:51.115Z,100021.88
2022-12-24T06:58:17.480Z,100019.56
2022-12-24T07:00:43.878Z,100023.38
2022-12-24T07:03:10.800Z,100034.56
2022-12-24T07:05:37.128Z,100031.06
2022-12-24T07:08:03.748Z,100042.47
2022-12-24T07:10:30.130Z,100036.78
2022-12-24T07:12:56.520Z,100046.66
2022-12-24T07:15:22.847Z,100029.44
2022-12-24T07:17:49.221Z,100049.78
2022-12-24T07:20:15.712Z,100046.13
2022-12-24T07:22:42.613Z,100055.66
2022-12-24T07:25:09.894Z,100058.50
2022-12-24T07:27:36.579Z,100069.00
2022-12-24T07:30:03.883Z,100067.97
2022-12-24T07:32:30.252Z,100072.28
2022-12-24T07:34:56.631Z,100070.47
2022-12-24T07:37:23.051Z,100072.81
2022-12-24T07:39:49.396Z,100074.97
2022-12-24T07:42:15.785Z,100085.72
2022-12-24T07:44:42.191Z,100087.25
2022-12-24T07:47:08.706Z,100084.56
2022-12-24T07:49:36.258Z,100083.25
2022-12-24T07:52:03.190Z,100088.72
2022-12-24T07:54:29.571Z,100099.22
2022-12-24T07:56:55.949Z,100098.88
2022-12-24T07:59:22.408Z,100109.19
2022-12-24T08:01:49.005Z,100109.66
2022-12-24T08:04:15.464Z,100101.97
2022-12-24T08:06:41.800Z,100118.53
2022-12-24T08:09:08.185Z,100123.28
2022-12-24T08:11:34.573Z,100126.81
2022-12-24T08:14:01.006Z,100132.84
2022-12-24T08:16:27.429Z,100138.72
2022-12-24T08:18:53.859Z,100134.97
2022-12-24T08:21:20.300Z,100134.00
2022-12-24T08:23:47.014Z,100133.66
2022-12-24T08:26:13.756Z,100133.75
2022-12-24T08:28:40.211Z,100140.78
2022-12-24T08:31:06.739Z,100137.94
2022-12-24T08:33:33.174Z,100141.00
2022-12-24T08:36:01.501Z,100147.56
2022-12-24T08:38:27.859Z,100156.63
2022-12-24T08:40:55.209Z,100157.44
2022-12-24T08:43:22.340Z,100166.81
2022-12-24T08:45:51.601Z,100173.47
2022-12-24T08:48:18.093Z,100180.81
2022-12-24T08:50:44.989Z,100184.31
2022-12-24T08:53:11.607Z,100187.16
2022-12-24T08:55:37.981Z,100189.16
2022-12-24T08:58:04.489Z,100181.97
2022-12-24T09:00:31.036Z,100181.31
2022-12-24T09:02:57.573Z,100191.47
2022-12-24T09:05:24.021Z,100190.16
2022-12-24T09:07:50.383Z,100192.47
2022-12-24T09:10:17.107Z,100186.81
2022-12-24T09:12:43.550Z,100193.16
2022-12-24T09:15:10.029Z,100199.66
2022-12-24T09:17:36.592Z,100210.50
2022-12-24T09:20:04.015Z,100216.66
2022-12-24T09:22:30.419Z,100209.34
2022-12-24T09:24:56.808Z,100209.34
2022-12-24T09:27:23.338Z,100208.66
2022-12-24T09:29:49.758Z,100210.00
2022-12-24T09:32:16.166Z,100213.09
2022-12-24T09:34:42.664Z,100203.72
2022-12-24T09:37:09.027Z,100215.69
2022-12-24T09:39:35.359Z,100218.97
2022-12-24T09:42:24.681Z,100210.97
2022-12-24T09:44:58.983Z,100219.66
2022-12-24T09:47:31.773Z,100233.19
2022-12-24T09:50:00.220Z,100236.53
2022-12-24T09:52:33.412Z,100233.66
2022-12-24T09:55:21.112Z,100229.16
2022-12-24T09:57:47.798Z,100234.19
2022-12-24T10:00:30.593Z,100244.19
2022-12-24T10:02:58.570Z,100244.53
2022-12-24T10:06:06.387Z,100247.69
2022-12-24T10:09:07.543Z,100251.34
2022-12-24T10:12:05.538Z,100246.50
2022-12-24T10:14:56.820Z,100250.66
2022-12-24T10:17:38.759Z,100265.63
2022-12-24T10:20:33.214Z,100272.88
2022-12-24T10:23:30.023Z,100263.13
2022-12-24T10:26:07.590Z,100269.63
2022-12-24T10:28:58.476Z,100263.75
2022-12-24T10:31:36.219Z,100262.59
2022-12-24T10:34:07.237Z,100257.06
2022-12-24T10:36:33.548Z,100266.06
2022-12-24T10:39:00.053Z,100274.34
2022-12-24T10:41:27.283Z,100273.81
2022-12-24T10:43:54.179Z,100267.31
2022-12-24T10:46:36.660Z,100272.22
2022-12-24T10:49:12.525Z,100272.22
2022-12-24T10:51:50.516Z,100267.03
2022-12-24T10:54:26.907Z,100268.34
2022-12-24T10:56:59.405Z,100261.47
2022-12-24T10:59:34.490Z,100272.47
2022-12-24T11:02:01.625Z,100268.13
2022-12-24T11:04:30.511Z,100273.31
2022-12-24T11:07:02.898Z,100276.28
2022-12-24T11:09:35.453Z,100292.97
2022-12-24T11:12:08.991Z,100277.41
2022-12-24T11:14:37.744Z,100277.41
2022-12-24T11:17:04.493Z,100272.66
2022-12-24T11:19:36.324Z,100281.81
2022-12-24T11:22:07.985Z,100275.84
2022-12-24T11:24:35.776Z,100281.66
2022-12-24T11:27:20.821Z,100277.59
2022-12-24T11:29:47.186Z,100283.44
2022-12-24T11:32:22.266Z,100283.22
2022-12-24T11:34:49.071Z,100275.66
2022-12-24T11:37:21.512Z,100279.78
2022-12-24T11:39:51.018Z,100276.13
2022-12-24T11:42:25.477Z,100285.97
2022-12-24T11:44:51.900Z,100277.09
2022-12-24T11:47:32.416Z,100281.59
2022-12-24T11:50:21.813Z,100280.28
2022-12-24T11:52:52.701Z,100281.25
2022-12-24T11:55:25.028Z,100283.88
2022-12-24T11:58:02.307Z,100275.09
2022-12-24T12:00:28.706Z,100274.22
2022-12-24T12:02:57.368Z,100270.19
2022-12-24T12:05:32.445Z,100265.09
2022-12-24T12:08:08.511Z,100273.88
2022-12-24T12:10:37.558Z,100264.63
2022-12-24T12:13:14.703Z,100268.69
2022-12-24T12:15:47.472Z,100271.41
2022-12-24T12:18:25.424Z,100264.25
2022-12-24T12:21:00.960Z,100258.72
2022-12-24T12:23:34.028Z,100265.56
2022-12-24T12:26:04.780Z,100271.63
2022-12-24T12:28:59.446Z,100272.59
2022-12-24T12:31:34.165Z,100271.41
2022-12-24T12:34:06.128Z,100268.53
2022-12-24T12:37:03.488Z,100271.63
2022-12-24T12:39:31.156Z,100276.13
2022-12-24T12:42:08.137Z,100274.13
2022-12-24T12:44:49.402Z,100271.41
2022-12-24T12:48:10.533Z,100283.13
2022-12-24T12:50:42.995Z,100280.97
2022-12-24T12:53:31.093Z,100282.91
2022-12-24T12:56:29.743Z,100282.53
2022-12-24T12:59:04.611Z,100290.13
2022-12-24T13:01:43.485Z,100283.81
2022-12-24T13:04:30.313Z,100287.16
2022-12-24T13:07:06.634Z,100288.69
2022-12-24T13:10:11.528Z,100286.66
2022-12-24T13:13:20.253Z,100284.44
2022-12-24T13:16:25.487Z,100290.69
2022-12-24T13:19:00.907Z,100292.59
2022-12-24T13:21:29.120Z,100296.84
2022-12-24T13:24:06.732Z,100295.31
2022-12-24T13:26:33.255Z,100297.19
2022-12-24T13:29:31.705Z,100292.09
2022-12-24T13:32:19.855Z,100293.41
2022-12-24T13:35:03.789Z,100299.38
2022-12-24T13:37:34.614Z,100299.50
2022-12-24T13:40:09.974Z,100297.13
2022-12-24T13:42:51.587Z,100301.50
2022-12-24T13:45:33.240Z,100302.09
2022-12-24T13:48:16.849Z,100297.94
2022-12-24T13:50:54.499Z,100293.66
2022-12-24T13:53:28.323Z,100290.00
2022-12-24T13:56:31.136Z,100305.06
2022-12-24T13:59:17.150Z,100306.59
2022-12-24T14:01:44.310Z,100317.97
2022-12-24T14:04:26.441Z,100312.53
2022-12-24T14:06:53.360Z,100312.03
2022-12-24T14:09:24.906Z,100317.72
2022-12-24T14:11:55.840Z,100307.88
2022-12-24T14:14:41.531Z,100310.59
2022-12-24T14:17:27.013Z,100311.19
2022-12-24T14:19:56.520Z,100307.03
2022-12-24T14:22:25.715Z,100314.59
2022-12-24T14:25:01.090Z,100331.94
2022-12-24T14:27:46.129Z,100323.28
2022-12-24T14:30:15.780Z,100323.41
2022-12-24T14:32:42.303Z,100329.44
2022-12-24T14:35:18.603Z,100330.84
2022-12-24T14:37:47.260Z,100327.28
2022-12-24T14:40:20.460Z,100329.53
2022-12-24T14:42:56.290Z,100318.53
2022-12-24T14:45:33.810Z,100331.13
2022-12-24T14:48:06.066Z,100330.78
2022-12-24T14:50:40.531Z,100332.75
2022-12-24T14:53:39.933Z,100336.78
2022-12-24T14:56:18.576Z,100343.72
2022-12-24T14:58:45.888Z,100335.91
2022-12-24T15:01:30.012Z,100349.47
2022-12-24T15:04:04.263Z,100352.69
2022-12-24T15:06:33.655Z,100361.41
2022-12-24T15:09:00.456Z,100357.94
2022-12-24T15:11:26.958Z,100364.53
2022-12-24T15:13:56.117Z,100372.44
2022-12-24T15:16:28.377Z,100370.16
2022-12-24T15:18:57.745Z,100380.19
2022-12-24T15:21:30.080Z,100385.72
2022-12-24T15:23:56.822Z,100387.03
2022-12-24T15:26:28.733Z,100386.56
2022-12-24T15:29:02.613Z,100401.94
2022-12-24T15:31:30.261Z,100397.97
2022-12-24T15:33:59.062Z,100405.66
2022-12-24T15:36:28.607Z,100405.50
2022-12-24T15:38:57.724Z,100405.34
2022-12-24T15:41:26.648Z,100411.25
2022-12-24T15:43:54.453Z,100407.91
2022-12-24T15:46:21.976Z,100410.94
2022-12-24T15:48:49.081Z,100417.78
2022-12-24T15:51:34.817Z,100420.00
2022-12-24T15:54:19.503Z,100417.16
2022-12-24T15:56:46.984Z,100405.84
2022-12-24T15:59:17.564Z,100410.84
2022-12-24T16:01:44.597Z,100410.34
2022-12-24T16:04:25.566Z,100411.00
2022-12-24T16:06:56.297Z,100408.50
2022-12-24T16:09:43.142Z,100410.66
2022-12-24T16:12:16.183Z,100409.84
2022-12-24T16:14:46.319Z,100414.50
2022-12-24T16:17:24.548Z,100405.81
2022-12-24T16:19:53.085Z,100408.09
2022-12-24T16:22:34.860Z,100418.97
2022-12-24T16:25:22.819Z,100420.63
2022-12-24T16:27:50.507Z,100427.84
2022-12-24T16:30:17.224Z,100428.09
2022-12-24T16:32:43.747Z,100421.91
2022-12-24T16:35:38.355Z,100427.25
2022-12-24T16:38:04.767Z,100426.22
2022-12-24T16:40:31.193Z,100425.72
2022-12-24T16:43:16.214Z,100428.25
2022-12-24T16:45:43.125Z,100430.56
2022-12-24T16:48:14.154Z,100433.59
2022-12-24T16:50:40.615Z,100439.16
2022-12-24T16:53:09.225Z,100441.00
2022-12-24T16:55:38.944Z,100441.13
2022-12-24T16:58:05.366Z,100438.44
2022-12-24T17:00:32.367Z,100446.13
2022-12-24T17:02:58.979Z,100441.94
2022-12-24T17:05:25.533Z,100435.09
2022-12-24T17:07:51.944Z,100435.09
2022-12-24T17:10:18.594Z,100440.78
2022-12-24T17:12:44.996Z,100433.59
2022-12-24T17:15:11.566Z,100438.09
2022-12-24T17:17:38.364Z,100451.97
2022-12-24T17:20:05.645Z,100449.97
2022-12-24T17:22:32.000Z,100450.63
2022-12-24T17:24:58.418Z,100451.84
2022-12-24T17:27:24.816Z,100447.34
2022-12-24T17:29:51.264Z,100444.16
2022-12-24T17:32:17.652Z,100449.34
2022-12-24T17:34:44.101Z,100460.03
2022-12-24T17:37:10.598Z,100465.69
2022-12-24T17:39:37.016Z,100470.19
2022-12-24T17:42:03.484Z,100482.03
2022-12-24T17:44:30.187Z,100473.03
2022-12-24T17:46:56.600Z,100485.06
2022-12-24T17:49:22.999Z,100478.88
2022-12-24T17:51:49.387Z,100487.38
2022-12-24T17:54:15.888Z,100482.41
2022-12-24T17:56:42.282Z,100479.75
2022-12-24T17:59:08.653Z,100477.78
2022-12-24T18:01:35.116Z,100478.25
2022-12-24T18:04:02.793Z,100472.56
2022-12-24T18:06:29.393Z,100461.22
2022-12-24T18:08:56.098Z,100453.38
2022-12-24T18:11:40.601Z,100462.75
2022-12-24T18:14:08.051Z,100459.72
2022-12-24T18:16:39.016Z,100452.06
2022-12-24T18:19:08.071Z,100446.22
2022-12-24T18:21:34.495Z,100442.22
2022-12-24T18:24:01.325Z,100447.38
2022-12-24T18:26:29.399Z,100445.25
2022-12-24T18:28:58.184Z,100445.09
2022-12-24T18:31:26.601Z,100444.75
2022-12-24T18:33:55.689Z,100442.59
2022-12-24T18:36:22.555Z,100450.91
2022-12-24T18:38:48.926Z,100453.41
2022-12-24T18:41:17.976Z,100461.09
2022-12-24T18:43:44.505Z,100470.97
2022-12-24T18:46:13.398Z,100476.78
2022-12-24T18:48:39.771Z,100461.63
2022-12-24T18:51:07.675Z,100475.28
2022-12-24T18:53:34.040Z,100480.63
2022-12-24T18:56:28.078Z,100478.63
2022-12-24T18:58:56.747Z,100479.13
2022-12-24T19:01:25.563Z,100491.31
2022-12-24T19:03:52.383Z,100483.47
2022-12-24T19:06:19.280Z,100489.13
2022-12-24T19:08:57.136Z,100486.97
2022-12-24T19:11:26.026Z,100488.13
2022-12-24T19:13:55.546Z,100489.63
2022-12-24T19:16:22.160Z,100492.66
2022-12-24T19:18:49.090Z,100499.63
2022-12-24T19:21:17.260Z,100512.78
2022-12-24T19:23:50.185Z,100514.44
2022-12-24T19:26:17.893Z,100526.28
2022-12-24T19:28:45.126Z,100530.94
2022-12-24T19:31:14.491Z,100527.97
2022-12-24T19:33:45.829Z,100528.47
2022-12-24T19:38:41.017Z,100520.81
2022-12-24T19:41:08.672Z,100519.47
2022-12-24T19:43:38.919Z,100518.28
2022-12-24T19:46:05.461Z,100520.97
2022-12-24T19:48:32.015Z,100514.78
2022-12-24T19:51:06.550Z,100504.13
2022-12-24T19:53:33.425Z,100510.44
2022-12-24T19:55:59.864Z,100514.28
2022-12-24T19:58:27.754Z,100509.28
2022-12-24T20:00:56.467Z,100506.28
2022-12-24T20:03:22.872Z,100505.97
2022-12-24T20:05:49.501Z,100507.97
2022-12-24T20:08:15.897Z,100512.59
2022-12-24T20:10:43.383Z,100514.78
2022-12-24T20:13:10.428Z,100512.28
2022-12-24T20:15:41.295Z,100507.47
2022-12-24T20:18:08.423Z,100509.28
2022-12-24T20:20:34.852Z,100511.09
2022-12-24T20:23:01.452Z,100509.28
2022-12-24T20:25:27.777Z,100527.25
2022-12-24T20:27:54.298Z,100505.75
2022-12-24T20:30:22.973Z,100500.56
2022-12-24T20:32:53.129Z,100505.25
2022-12-24T20:35:19.471Z,100502.75
2022-12-24T20:37:46.509Z,100510.72
2022-12-24T20:40:12.986Z,100521.03
2022-12-24T20:42:39.384Z,100519.88
2022-12-24T20:45:06.283Z,100524.06
2022-12-24T20:47:33.275Z,100534.41
2022-12-24T20:49:59.742Z,100534.91
2022-12-24T20:52:26.147Z,100540.59
2022-12-24T20:54:52.718Z,100537.94
2022-12-24T20:57:25.290Z,100523.78
2022-12-24T20:59:53.211Z,100528.75
2022-12-24T21:02:19.794Z,100526.09
2022-12-24T21:04:46.292Z,100531.25
2022-12-24T21:07:14.310Z,100536.59
2022-12-24T21:09:41.270Z,100535.56
2022-12-24T21:12:29.011Z,100534.22
2022-12-24T21:14:55.400Z,100537.22
2022-12-24T21:17:21.818Z,100551.41
2022-12-24T21:19:48.243Z,100538.25
2022-12-24T21:22:14.588Z,100533.91
2022-12-24T21:24:40.972Z,100526.25
2022-12-24T21:27:07.317Z,100531.25
2022-12-24T21:29:33.691Z,100529.59
2022-12-24T21:32:00.064Z,100528.59
2022-12-24T21:34:26.430Z,100521.44
2022-12-24T21:36:52.779Z,100534.59
2022-12-24T21:39:19.145Z,100536.78
2022-12-24T21:41:45.811Z,100530.59
2022-12-24T21:44:12.180Z,100532.28
2022-12-24T21:46:38.622Z,100527.56
2022-12-24T21:49:23.491Z,100517.75
2022-12-24T21:51:49.887Z,100501.91
2022-12-24T21:54:30.393Z,100502.88
2022-12-24T21:57:20.647Z,100507.91
2022-12-24T21:59:49.885Z,100499.59
2022-12-24T22:02:16.477Z,100496.44
2022-12-24T22:04:44.141Z,100490.91
2022-12-24T22:07:41.800Z,100481.41
2022-12-24T22:10:27.406Z,100488.06
2022-12-24T22:12:54.592Z,100495.56
2022-12-24T22:15:21.389Z,100508.84
2022-12-24T22:17:47.866Z,100512.69
2022-12-24T22:20:14.259Z,100529.00
2022-12-24T22:22:40.717Z,100525.66
2022-12-24T22:25:07.323Z,100537.38
2022-12-24T22:27:33.664Z,100535.03
2022-12-24T22:30:00.047Z,100533.50
2022-12-24T22:32:26.436Z,100538.19
2022-12-24T22:34:53.671Z,100538.38
2022-12-24T22:37:20.057Z,100531.34
2022-12-24T22:39:46.379Z,100528.88
2022-12-24T22:42:12.737Z,100533.69
2022-12-24T22:44:39.122Z,100543.50
2022-12-24T22:47:05.459Z,100544.66
2022-12-24T22:49:31.940Z,100543.16
2022-12-24T22:51:58.592Z,100553.00
2022-12-24T22:54:25.273Z,100535.03
2022-12-24T22:56:51.693Z,100545.53
2022-12-24T22:59:18.191Z,100532.56
2022-12-24T23:01:46.003Z,100522.38
2022-12-24T23:04:13.018Z,100536.72
2022-12-24T23:06:40.212Z,100533.56
2022-12-24T23:09:08.457Z,100535.06
2022-12-24T23:11:35.146Z,100534.72
2022-12-24T23:14:20.232Z,100530.09
2022-12-24T23:16:46.588Z,100538.25
2022-12-24T23:19:12.994Z,100541.25
2022-12-24T23:21:39.837Z,100542.09
2022-12-24T23:24:06.468Z,100531.94
2022-12-24T23:26:32.858Z,100524.56
2022-12-24T23:28:59.202Z,100516.06
2022-12-24T23:31:25.905Z,100519.75
2022-12-24T23:33:52.431Z,100530.75
2022-12-24T23:36:19.641Z,100526.25
2022-12-24T23:38:45.974Z,100538.41
2022-12-24T23:41:12.511Z,100538.75
2022-12-24T23:43:38.938Z,100526.28
2022-12-24T23:46:05.432Z,100519.09
2022-12-24T23:48:31.912Z,100529.09
2022-12-24T23:51:09.782Z,100544.56
2022-12-24T23:53:36.338Z,100541.59
2022-12-24T23:56:03.304Z,100540.13
2022-12-24T23:58:29.717Z,100546.44
